Terminal Aerodrome Forecast
Issued by NWS

Home | Current Version | Previous Version | Text Only | Print | Product List | Glossary On
Versions: 1 2 3 4 5 6 7 8 9 10 11 12 13 14 15 16 17 18 19 20 21 22
809
FTUS42 KFFC 241930 AAA
TAFPDK
TAF AMD
KPDK 241930Z 2420/2518 15010G16KT P6SM FEW060 BKN250
     FM250000 13006KT P6SM FEW150 SCT250
     FM250800 14004KT P6SM SCT012 BKN022
     FM251600 16010KT P6SM BKN035=

USA.gov is the U.S. government's official web portal to all federal, state and local government web resources and services.